sensor_id;sensor_type;location;lat;lon;timestamp;P1;durP1;ratioP1;P2;durP2;ratioP2
59388;SDS011;51830;45.202;19.720;2023-09-19T00:01:39;12.45;;;3.10;;
59388;SDS011;51830;45.202;19.720;2023-09-19T00:04:06;14.23;;;3.55;;
59388;SDS011;51830;45.202;19.720;2023-09-19T00:06:38;11.93;;;3.03;;
59388;SDS011;51830;45.202;19.720;2023-09-19T00:09:04;11.27;;;2.92;;
59388;SDS011;51830;45.202;19.720;2023-09-19T00:11:35;12.73;;;3.22;;
59388;SDS011;51830;45.202;19.720;2023-09-19T00:14:01;16.98;;;3.50;;
59388;SDS011;51830;45.202;19.720;2023-09-19T00:16:28;15.13;;;3.22;;
59388;SDS011;51830;45.202;19.720;2023-09-19T00:18:54;10.65;;;3.00;;
59388;SDS011;51830;45.202;19.720;2023-09-19T00:21:20;13.50;;;3.30;;
59388;SDS011;51830;45.202;19.720;2023-09-19T00:23:47;11.50;;;3.30;;
59388;SDS011;51830;45.202;19.720;2023-09-19T00:26:14;14.13;;;3.20;;
59388;SDS011;51830;45.202;19.720;2023-09-19T00:28:40;12.27;;;3.40;;
59388;SDS011;51830;45.202;19.720;2023-09-19T00:31:09;11.68;;;3.22;;
59388;SDS011;51830;45.202;19.720;2023-09-19T00:33:35;12.63;;;2.95;;
59388;SDS011;51830;45.202;19.720;2023-09-19T00:36:02;12.65;;;3.00;;
59388;SDS011;51830;45.202;19.720;2023-09-19T00:38:30;13.40;;;3.33;;
59388;SDS011;51830;45.202;19.720;2023-09-19T00:40:57;12.23;;;3.15;;
59388;SDS011;51830;45.202;19.720;2023-09-19T00:43:24;12.05;;;3.10;;
59388;SDS011;51830;45.202;19.720;2023-09-19T00:45:52;12.27;;;3.30;;
59388;SDS011;51830;45.202;19.720;2023-09-19T00:48:20;13.30;;;3.13;;
59388;SDS011;51830;45.202;19.720;2023-09-19T00:50:47;14.68;;;3.38;;
59388;SDS011;51830;45.202;19.720;2023-09-19T00:53:15;12.05;;;3.05;;
59388;SDS011;51830;45.202;19.720;2023-09-19T00:55:44;12.75;;;3.30;;
59388;SDS011;51830;45.202;19.720;2023-09-19T00:58:11;13.77;;;3.53;;
59388;SDS011;51830;45.202;19.720;2023-09-19T01:00:37;11.50;;;2.90;;
59388;SDS011;51830;45.202;19.720;2023-09-19T01:03:04;12.15;;;3.20;;
59388;SDS011;51830;45.202;19.720;2023-09-19T01:05:31;11.77;;;3.15;;
59388;SDS011;51830;45.202;19.720;2023-09-19T01:07:57;14.60;;;3.40;;
59388;SDS011;51830;45.202;19.720;2023-09-19T01:10:24;12.50;;;3.13;;
59388;SDS011;51830;45.202;19.720;2023-09-19T01:13:12;12.23;;;3.03;;
59388;SDS011;51830;45.202;19.720;2023-09-19T01:15:55;14.25;;;3.55;;
59388;SDS011;51830;45.202;19.720;2023-09-19T01:23:21;11.38;;;3.15;;
59388;SDS011;51830;45.202;19.720;2023-09-19T01:28:29;13.48;;;3.40;;
59388;SDS011;51830;45.202;19.720;2023-09-19T01:30:56;13.07;;;3.30;;
59388;SDS011;51830;45.202;19.720;2023-09-19T01:33:24;13.75;;;3.30;;
59388;SDS011;51830;45.202;19.720;2023-09-19T01:35:51;11.20;;;2.80;;
59388;SDS011;51830;45.202;19.720;2023-09-19T01:38:23;13.57;;;3.53;;
59388;SDS011;51830;45.202;19.720;2023-09-19T01:41:24;10.48;;;2.92;;
59388;SDS011;51830;45.202;19.720;2023-09-19T01:43:42;12.27;;;3.25;;
59388;SDS011;51830;45.202;19.720;2023-09-19T01:46:16;12.05;;;3.08;;
59388;SDS011;51830;45.202;19.720;2023-09-19T01:48:48;13.43;;;3.33;;
59388;SDS011;51830;45.202;19.720;2023-09-19T01:51:20;12.98;;;3.17;;
59388;SDS011;51830;45.202;19.720;2023-09-19T01:54:00;10.23;;;2.78;;
59388;SDS011;51830;45.202;19.720;2023-09-19T01:56:35;10.50;;;2.80;;
59388;SDS011;51830;45.202;19.720;2023-09-19T02:01:29;12.75;;;3.20;;
59388;SDS011;51830;45.202;19.720;2023-09-19T02:03:56;10.40;;;2.92;;
59388;SDS011;51830;45.202;19.720;2023-09-19T02:06:24;13.65;;;3.15;;
59388;SDS011;51830;45.202;19.720;2023-09-19T02:08:50;10.10;;;2.85;;
59388;SDS011;51830;45.202;19.720;2023-09-19T02:11:16;12.95;;;3.38;;
59388;SDS011;51830;45.202;19.720;2023-09-19T02:13:42;12.55;;;3.10;;
59388;SDS011;51830;45.202;19.720;2023-09-19T02:16:09;13.48;;;3.40;;
59388;SDS011;51830;45.202;19.720;2023-09-19T02:18:36;12.85;;;3.13;;
59388;SDS011;51830;45.202;19.720;2023-09-19T02:21:02;13.48;;;3.42;;
59388;SDS011;51830;45.202;19.720;2023-09-19T02:23:37;13.80;;;3.40;;
59388;SDS011;51830;45.202;19.720;2023-09-19T02:26:04;14.07;;;3.55;;
59388;SDS011;51830;45.202;19.720;2023-09-19T02:28:30;10.75;;;2.90;;
59388;SDS011;51830;45.202;19.720;2023-09-19T02:30:57;11.95;;;3.00;;
59388;SDS011;51830;45.202;19.720;2023-09-19T02:33:23;14.32;;;3.42;;
59388;SDS011;51830;45.202;19.720;2023-09-19T02:35:49;14.05;;;2.85;;
59388;SDS011;51830;45.202;19.720;2023-09-19T02:38:22;14.50;;;3.42;;
59388;SDS011;51830;45.202;19.720;2023-09-19T02:40:50;12.38;;;3.20;;
59388;SDS011;51830;45.202;19.720;2023-09-19T02:43:16;10.50;;;2.97;;
59388;SDS011;51830;45.202;19.720;2023-09-19T02:45:42;12.30;;;3.10;;
59388;SDS011;51830;45.202;19.720;2023-09-19T02:48:08;12.32;;;3.00;;
59388;SDS011;51830;45.202;19.720;2023-09-19T02:50:37;13.40;;;3.45;;
59388;SDS011;51830;45.202;19.720;2023-09-19T02:53:04;12.85;;;3.20;;
59388;SDS011;51830;45.202;19.720;2023-09-19T02:55:32;13.52;;;3.28;;
59388;SDS011;51830;45.202;19.720;2023-09-19T02:57:59;12.20;;;3.10;;
59388;SDS011;51830;45.202;19.720;2023-09-19T03:00:26;13.82;;;3.38;;
59388;SDS011;51830;45.202;19.720;2023-09-19T03:02:54;13.65;;;3.58;;
59388;SDS011;51830;45.202;19.720;2023-09-19T03:05:21;9.85;;;3.10;;
59388;SDS011;51830;45.202;19.720;2023-09-19T03:07:48;15.25;;;3.53;;
59388;SDS011;51830;45.202;19.720;2023-09-19T03:10:18;13.50;;;3.33;;
59388;SDS011;51830;45.202;19.720;2023-09-19T03:12:45;12.13;;;3.50;;
59388;SDS011;51830;45.202;19.720;2023-09-19T03:15:12;12.60;;;3.22;;
59388;SDS011;51830;45.202;19.720;2023-09-19T03:17:42;12.07;;;3.00;;
59388;SDS011;51830;45.202;19.720;2023-09-19T03:20:10;13.35;;;3.47;;
59388;SDS011;51830;45.202;19.720;2023-09-19T03:22:38;13.07;;;3.25;;
59388;SDS011;51830;45.202;19.720;2023-09-19T03:25:07;14.45;;;3.13;;
59388;SDS011;51830;45.202;19.720;2023-09-19T03:27:40;12.48;;;3.10;;
59388;SDS011;51830;45.202;19.720;2023-09-19T03:32:34;14.02;;;3.13;;
59388;SDS011;51830;45.202;19.720;2023-09-19T03:35:01;15.02;;;3.63;;
59388;SDS011;51830;45.202;19.720;2023-09-19T03:37:29;12.65;;;3.78;;
59388;SDS011;51830;45.202;19.720;2023-09-19T03:39:55;11.77;;;3.17;;
59388;SDS011;51830;45.202;19.720;2023-09-19T03:42:21;12.05;;;3.20;;
59388;SDS011;51830;45.202;19.720;2023-09-19T03:44:50;12.18;;;3.55;;
59388;SDS011;51830;45.202;19.720;2023-09-19T03:47:20;12.50;;;3.17;;
59388;SDS011;51830;45.202;19.720;2023-09-19T03:49:46;12.95;;;3.30;;
59388;SDS011;51830;45.202;19.720;2023-09-19T03:52:12;11.80;;;3.22;;
59388;SDS011;51830;45.202;19.720;2023-09-19T03:54:39;14.30;;;3.50;;
59388;SDS011;51830;45.202;19.720;2023-09-19T03:57:06;13.18;;;3.42;;
59388;SDS011;51830;45.202;19.720;2023-09-19T03:59:32;13.10;;;3.33;;
59388;SDS011;51830;45.202;19.720;2023-09-19T04:02:02;15.25;;;3.28;;
59388;SDS011;51830;45.202;19.720;2023-09-19T04:04:29;14.88;;;3.40;;
59388;SDS011;51830;45.202;19.720;2023-09-19T04:06:55;13.25;;;3.53;;
59388;SDS011;51830;45.202;19.720;2023-09-19T04:09:22;12.63;;;3.47;;
59388;SDS011;51830;45.202;19.720;2023-09-19T04:11:48;13.45;;;3.53;;
59388;SDS011;51830;45.202;19.720;2023-09-19T04:14:15;14.25;;;3.95;;
59388;SDS011;51830;45.202;19.720;2023-09-19T04:16:41;13.10;;;3.40;;
59388;SDS011;51830;45.202;19.720;2023-09-19T04:19:07;16.25;;;3.65;;
59388;SDS011;51830;45.202;19.720;2023-09-19T04:21:33;15.18;;;3.72;;
59388;SDS011;51830;45.202;19.720;2023-09-19T04:24:00;14.23;;;3.88;;
59388;SDS011;51830;45.202;19.720;2023-09-19T04:26:26;14.45;;;3.70;;
59388;SDS011;51830;45.202;19.720;2023-09-19T04:28:52;16.75;;;3.88;;
59388;SDS011;51830;45.202;19.720;2023-09-19T04:31:18;15.93;;;4.10;;
59388;SDS011;51830;45.202;19.720;2023-09-19T04:33:45;13.30;;;3.40;;
59388;SDS011;51830;45.202;19.720;2023-09-19T04:36:11;13.07;;;3.47;;
59388;SDS011;51830;45.202;19.720;2023-09-19T04:38:38;13.52;;;3.78;;
59388;SDS011;51830;45.202;19.720;2023-09-19T04:41:05;14.80;;;3.60;;
59388;SDS011;51830;45.202;19.720;2023-09-19T04:43:31;13.60;;;3.55;;
59388;SDS011;51830;45.202;19.720;2023-09-19T04:45:57;14.02;;;3.63;;
59388;SDS011;51830;45.202;19.720;2023-09-19T04:48:25;13.60;;;3.72;;
59388;SDS011;51830;45.202;19.720;2023-09-19T04:50:51;14.32;;;4.05;;
59388;SDS011;51830;45.202;19.720;2023-09-19T04:53:18;15.27;;;3.65;;
59388;SDS011;51830;45.202;19.720;2023-09-19T04:55:49;14.40;;;3.63;;
59388;SDS011;51830;45.202;19.720;2023-09-19T04:58:15;13.70;;;3.90;;
59388;SDS011;51830;45.202;19.720;2023-09-19T05:00:43;14.15;;;3.45;;
59388;SDS011;51830;45.202;19.720;2023-09-19T05:03:09;16.08;;;3.90;;
59388;SDS011;51830;45.202;19.720;2023-09-19T05:05:35;14.13;;;3.95;;
59388;SDS011;51830;45.202;19.720;2023-09-19T05:08:03;14.02;;;3.58;;
59388;SDS011;51830;45.202;19.720;2023-09-19T05:10:31;14.82;;;3.60;;
59388;SDS011;51830;45.202;19.720;2023-09-19T05:12:57;14.23;;;3.42;;
59388;SDS011;51830;45.202;19.720;2023-09-19T05:15:23;13.60;;;3.35;;
59388;SDS011;51830;45.202;19.720;2023-09-19T05:17:50;13.10;;;3.35;;
59388;SDS011;51830;45.202;19.720;2023-09-19T05:20:17;13.88;;;3.72;;
59388;SDS011;51830;45.202;19.720;2023-09-19T05:23:04;12.98;;;3.28;;
59388;SDS011;51830;45.202;19.720;2023-09-19T05:25:34;15.52;;;3.72;;
59388;SDS011;51830;45.202;19.720;2023-09-19T05:28:04;16.25;;;3.55;;
59388;SDS011;51830;45.202;19.720;2023-09-19T05:30:31;13.68;;;3.10;;
59388;SDS011;51830;45.202;19.720;2023-09-19T05:32:58;15.50;;;3.25;;
59388;SDS011;51830;45.202;19.720;2023-09-19T05:35:24;15.52;;;3.78;;
59388;SDS011;51830;45.202;19.720;2023-09-19T05:37:51;21.17;;;3.50;;
59388;SDS011;51830;45.202;19.720;2023-09-19T05:40:18;14.95;;;3.28;;
59388;SDS011;51830;45.202;19.720;2023-09-19T05:42:44;14.48;;;3.60;;
59388;SDS011;51830;45.202;19.720;2023-09-19T05:45:11;13.60;;;3.10;;
59388;SDS011;51830;45.202;19.720;2023-09-19T05:47:37;14.77;;;3.40;;
59388;SDS011;51830;45.202;19.720;2023-09-19T05:50:05;11.93;;;3.28;;
59388;SDS011;51830;45.202;19.720;2023-09-19T05:52:34;13.40;;;3.30;;
59388;SDS011;51830;45.202;19.720;2023-09-19T05:55:00;12.95;;;3.53;;
59388;SDS011;51830;45.202;19.720;2023-09-19T05:57:26;21.40;;;3.40;;
59388;SDS011;51830;45.202;19.720;2023-09-19T05:59:52;13.77;;;3.20;;
59388;SDS011;51830;45.202;19.720;2023-09-19T06:02:18;17.15;;;3.65;;
59388;SDS011;51830;45.202;19.720;2023-09-19T06:04:45;15.13;;;3.20;;
59388;SDS011;51830;45.202;19.720;2023-09-19T06:07:11;17.45;;;3.45;;
59388;SDS011;51830;45.202;19.720;2023-09-19T06:09:37;16.88;;;4.15;;
59388;SDS011;51830;45.202;19.720;2023-09-19T06:12:03;18.13;;;3.95;;
59388;SDS011;51830;45.202;19.720;2023-09-19T06:14:30;15.57;;;3.65;;
59388;SDS011;51830;45.202;19.720;2023-09-19T06:16:56;13.35;;;3.63;;
59388;SDS011;51830;45.202;19.720;2023-09-19T06:19:23;17.65;;;3.67;;
59388;SDS011;51830;45.202;19.720;2023-09-19T06:21:52;13.52;;;3.33;;
59388;SDS011;51830;45.202;19.720;2023-09-19T06:24:21;17.50;;;3.92;;
59388;SDS011;51830;45.202;19.720;2023-09-19T06:26:47;19.75;;;3.65;;
59388;SDS011;51830;45.202;19.720;2023-09-19T06:29:14;12.50;;;3.53;;
59388;SDS011;51830;45.202;19.720;2023-09-19T06:31:41;17.13;;;4.00;;
59388;SDS011;51830;45.202;19.720;2023-09-19T06:34:07;13.23;;;3.58;;
59388;SDS011;51830;45.202;19.720;2023-09-19T06:36:33;14.45;;;3.58;;
59388;SDS011;51830;45.202;19.720;2023-09-19T06:38:59;16.40;;;3.80;;
59388;SDS011;51830;45.202;19.720;2023-09-19T06:41:26;13.98;;;3.40;;
59388;SDS011;51830;45.202;19.720;2023-09-19T06:43:52;17.52;;;3.45;;
59388;SDS011;51830;45.202;19.720;2023-09-19T06:46:19;16.13;;;3.33;;
59388;SDS011;51830;45.202;19.720;2023-09-19T06:48:45;13.93;;;3.25;;
59388;SDS011;51830;45.202;19.720;2023-09-19T06:51:13;13.77;;;3.63;;
59388;SDS011;51830;45.202;19.720;2023-09-19T06:53:41;17.13;;;3.55;;
59388;SDS011;51830;45.202;19.720;2023-09-19T06:56:07;13.32;;;3.38;;
59388;SDS011;51830;45.202;19.720;2023-09-19T06:58:33;15.60;;;3.30;;
59388;SDS011;51830;45.202;19.720;2023-09-19T07:01:01;15.60;;;3.33;;
59388;SDS011;51830;45.202;19.720;2023-09-19T07:03:28;14.57;;;3.22;;
59388;SDS011;51830;45.202;19.720;2023-09-19T07:05:54;14.95;;;3.33;;
59388;SDS011;51830;45.202;19.720;2023-09-19T07:08:21;16.92;;;3.25;;
59388;SDS011;51830;45.202;19.720;2023-09-19T07:10:47;23.15;;;4.40;;
59388;SDS011;51830;45.202;19.720;2023-09-19T07:13:13;21.77;;;3.63;;
59388;SDS011;51830;45.202;19.720;2023-09-19T07:15:42;20.67;;;3.58;;
59388;SDS011;51830;45.202;19.720;2023-09-19T07:18:12;17.77;;;3.20;;
59388;SDS011;51830;45.202;19.720;2023-09-19T07:20:40;16.38;;;3.47;;
59388;SDS011;51830;45.202;19.720;2023-09-19T07:23:11;17.42;;;3.83;;
59388;SDS011;51830;45.202;19.720;2023-09-19T07:25:57;14.43;;;3.13;;
59388;SDS011;51830;45.202;19.720;2023-09-19T07:28:24;16.88;;;3.65;;
59388;SDS011;51830;45.202;19.720;2023-09-19T07:30:50;12.80;;;2.83;;
59388;SDS011;51830;45.202;19.720;2023-09-19T07:33:17;15.27;;;3.28;;
59388;SDS011;51830;45.202;19.720;2023-09-19T07:35:47;15.85;;;3.25;;
59388;SDS011;51830;45.202;19.720;2023-09-19T07:38:13;18.63;;;3.78;;
59388;SDS011;51830;45.202;19.720;2023-09-19T07:40:40;15.95;;;3.65;;
59388;SDS011;51830;45.202;19.720;2023-09-19T07:43:06;19.10;;;3.30;;
59388;SDS011;51830;45.202;19.720;2023-09-19T07:45:33;15.70;;;3.53;;
59388;SDS011;51830;45.202;19.720;2023-09-19T07:48:01;12.65;;;2.90;;
59388;SDS011;51830;45.202;19.720;2023-09-19T07:50:29;16.15;;;3.47;;
59388;SDS011;51830;45.202;19.720;2023-09-19T07:52:55;15.02;;;3.38;;
59388;SDS011;51830;45.202;19.720;2023-09-19T07:55:22;15.88;;;3.40;;
59388;SDS011;51830;45.202;19.720;2023-09-19T07:57:50;15.02;;;3.17;;
59388;SDS011;51830;45.202;19.720;2023-09-19T08:00:16;16.55;;;3.95;;
59388;SDS011;51830;45.202;19.720;2023-09-19T08:02:43;18.15;;;3.10;;
59388;SDS011;51830;45.202;19.720;2023-09-19T08:05:10;18.08;;;3.08;;
59388;SDS011;51830;45.202;19.720;2023-09-19T08:07:39;16.63;;;3.45;;
59388;SDS011;51830;45.202;19.720;2023-09-19T08:10:07;19.92;;;4.25;;
59388;SDS011;51830;45.202;19.720;2023-09-19T08:12:44;19.40;;;4.40;;
59388;SDS011;51830;45.202;19.720;2023-09-19T08:15:17;17.30;;;3.80;;
59388;SDS011;51830;45.202;19.720;2023-09-19T08:17:47;19.92;;;5.43;;
59388;SDS011;51830;45.202;19.720;2023-09-19T08:20:14;16.85;;;5.28;;
59388;SDS011;51830;45.202;19.720;2023-09-19T08:22:50;25.83;;;6.80;;
59388;SDS011;51830;45.202;19.720;2023-09-19T08:25:20;24.98;;;6.65;;
59388;SDS011;51830;45.202;19.720;2023-09-19T08:27:47;21.70;;;7.78;;
59388;SDS011;51830;45.202;19.720;2023-09-19T08:30:15;24.75;;;6.88;;
59388;SDS011;51830;45.202;19.720;2023-09-19T08:32:41;16.58;;;4.35;;
59388;SDS011;51830;45.202;19.720;2023-09-19T08:35:11;17.77;;;3.92;;
59388;SDS011;51830;45.202;19.720;2023-09-19T08:37:37;20.40;;;3.70;;
59388;SDS011;51830;45.202;19.720;2023-09-19T08:40:04;16.15;;;3.17;;
59388;SDS011;51830;45.202;19.720;2023-09-19T08:45:19;17.23;;;3.53;;
59388;SDS011;51830;45.202;19.720;2023-09-19T08:47:50;14.23;;;3.22;;
59388;SDS011;51830;45.202;19.720;2023-09-19T08:50:26;18.17;;;3.95;;
59388;SDS011;51830;45.202;19.720;2023-09-19T08:52:54;18.92;;;4.13;;
59388;SDS011;51830;45.202;19.720;2023-09-19T08:55:27;17.80;;;3.70;;
59388;SDS011;51830;45.202;19.720;2023-09-19T08:58:01;19.52;;;3.17;;
59388;SDS011;51830;45.202;19.720;2023-09-19T09:00:28;21.42;;;3.58;;
59388;SDS011;51830;45.202;19.720;2023-09-19T09:02:55;17.55;;;3.67;;
59388;SDS011;51830;45.202;19.720;2023-09-19T09:05:22;17.08;;;3.30;;
59388;SDS011;51830;45.202;19.720;2023-09-19T09:07:49;16.15;;;3.30;;
59388;SDS011;51830;45.202;19.720;2023-09-19T09:10:17;16.55;;;3.78;;
59388;SDS011;51830;45.202;19.720;2023-09-19T09:12:43;15.35;;;3.22;;
59388;SDS011;51830;45.202;19.720;2023-09-19T09:15:10;16.35;;;3.22;;
59388;SDS011;51830;45.202;19.720;2023-09-19T09:17:41;16.33;;;4.00;;
59388;SDS011;51830;45.202;19.720;2023-09-19T09:20:08;14.73;;;3.13;;
59388;SDS011;51830;45.202;19.720;2023-09-19T09:22:35;21.88;;;3.88;;
59388;SDS011;51830;45.202;19.720;2023-09-19T09:25:05;17.05;;;3.67;;
59388;SDS011;51830;45.202;19.720;2023-09-19T09:27:31;16.33;;;3.22;;
59388;SDS011;51830;45.202;19.720;2023-09-19T09:29:59;17.15;;;3.67;;
59388;SDS011;51830;45.202;19.720;2023-09-19T09:32:26;16.83;;;3.65;;
59388;SDS011;51830;45.202;19.720;2023-09-19T09:34:55;17.10;;;3.45;;
59388;SDS011;51830;45.202;19.720;2023-09-19T09:37:22;15.73;;;3.33;;
59388;SDS011;51830;45.202;19.720;2023-09-19T09:39:59;17.90;;;3.72;;
59388;SDS011;51830;45.202;19.720;2023-09-19T09:42:44;15.18;;;3.70;;
59388;SDS011;51830;45.202;19.720;2023-09-19T09:45:21;15.82;;;3.55;;
59388;SDS011;51830;45.202;19.720;2023-09-19T09:47:56;19.02;;;3.70;;
59388;SDS011;51830;45.202;19.720;2023-09-19T09:50:32;18.73;;;3.25;;
59388;SDS011;51830;45.202;19.720;2023-09-19T09:53:21;14.77;;;3.33;;
59388;SDS011;51830;45.202;19.720;2023-09-19T09:56:01;17.83;;;3.47;;
59388;SDS011;51830;45.202;19.720;2023-09-19T09:58:31;17.35;;;3.40;;
59388;SDS011;51830;45.202;19.720;2023-09-19T10:00:58;20.95;;;3.22;;
59388;SDS011;51830;45.202;19.720;2023-09-19T10:03:31;16.50;;;3.50;;
59388;SDS011;51830;45.202;19.720;2023-09-19T10:05:58;21.90;;;3.67;;
59388;SDS011;51830;45.202;19.720;2023-09-19T10:08:27;18.20;;;4.00;;
59388;SDS011;51830;45.202;19.720;2023-09-19T10:10:56;22.10;;;3.70;;
59388;SDS011;51830;45.202;19.720;2023-09-19T10:13:37;17.13;;;3.58;;
59388;SDS011;51830;45.202;19.720;2023-09-19T10:16:07;18.42;;;3.90;;
59388;SDS011;51830;45.202;19.720;2023-09-19T10:18:35;18.90;;;4.65;;
59388;SDS011;51830;45.202;19.720;2023-09-19T10:21:04;19.77;;;4.28;;
59388;SDS011;51830;45.202;19.720;2023-09-19T10:23:33;19.85;;;4.43;;
59388;SDS011;51830;45.202;19.720;2023-09-19T10:26:02;17.90;;;4.72;;
59388;SDS011;51830;45.202;19.720;2023-09-19T10:28:29;23.63;;;5.75;;
59388;SDS011;51830;45.202;19.720;2023-09-19T10:30:56;20.33;;;5.30;;
59388;SDS011;51830;45.202;19.720;2023-09-19T10:33:23;16.35;;;4.05;;
59388;SDS011;51830;45.202;19.720;2023-09-19T10:35:55;21.67;;;4.70;;
59388;SDS011;51830;45.202;19.720;2023-09-19T10:38:25;17.42;;;4.45;;
59388;SDS011;51830;45.202;19.720;2023-09-19T10:40:53;20.30;;;4.32;;
59388;SDS011;51830;45.202;19.720;2023-09-19T10:43:20;14.70;;;3.75;;
59388;SDS011;51830;45.202;19.720;2023-09-19T10:45:48;15.48;;;4.18;;
59388;SDS011;51830;45.202;19.720;2023-09-19T10:48:18;14.63;;;4.15;;
59388;SDS011;51830;45.202;19.720;2023-09-19T10:51:12;16.25;;;4.22;;
59388;SDS011;51830;45.202;19.720;2023-09-19T10:53:50;16.98;;;3.80;;
59388;SDS011;51830;45.202;19.720;2023-09-19T10:56:19;16.38;;;3.85;;
59388;SDS011;51830;45.202;19.720;2023-09-19T10:58:47;15.65;;;3.90;;
59388;SDS011;51830;45.202;19.720;2023-09-19T11:01:14;17.27;;;3.25;;
59388;SDS011;51830;45.202;19.720;2023-09-19T11:03:41;16.00;;;3.30;;
59388;SDS011;51830;45.202;19.720;2023-09-19T11:06:17;12.85;;;2.95;;
59388;SDS011;51830;45.202;19.720;2023-09-19T11:09:02;17.15;;;3.13;;
59388;SDS011;51830;45.202;19.720;2023-09-19T11:16:30;16.00;;;3.30;;
59388;SDS011;51830;45.202;19.720;2023-09-19T11:18:58;16.05;;;2.90;;
59388;SDS011;51830;45.202;19.720;2023-09-19T11:26:40;12.43;;;3.00;;
59388;SDS011;51830;45.202;19.720;2023-09-19T11:29:28;15.60;;;2.92;;
59388;SDS011;51830;45.202;19.720;2023-09-19T11:31:56;13.98;;;2.67;;
59388;SDS011;51830;45.202;19.720;2023-09-19T11:37:03;11.60;;;2.50;;
59388;SDS011;51830;45.202;19.720;2023-09-19T11:39:30;9.85;;;2.22;;
59388;SDS011;51830;45.202;19.720;2023-09-19T11:41:58;8.80;;;2.38;;
59388;SDS011;51830;45.202;19.720;2023-09-19T11:49:30;9.73;;;2.40;;
59388;SDS011;51830;45.202;19.720;2023-09-19T11:52:02;9.93;;;2.28;;
59388;SDS011;51830;45.202;19.720;2023-09-19T11:54:33;9.65;;;2.30;;
59388;SDS011;51830;45.202;19.720;2023-09-19T11:57:01;9.88;;;2.30;;
59388;SDS011;51830;45.202;19.720;2023-09-19T11:59:28;9.88;;;2.30;;
59388;SDS011;51830;45.202;19.720;2023-09-19T12:01:58;9.55;;;2.33;;
59388;SDS011;51830;45.202;19.720;2023-09-19T12:04:37;11.57;;;2.55;;
59388;SDS011;51830;45.202;19.720;2023-09-19T12:07:06;11.10;;;2.33;;
59388;SDS011;51830;45.202;19.720;2023-09-19T12:09:39;11.18;;;2.42;;
59388;SDS011;51830;45.202;19.720;2023-09-19T12:12:23;12.60;;;2.60;;
59388;SDS011;51830;45.202;19.720;2023-09-19T12:14:53;13.73;;;2.70;;
59388;SDS011;51830;45.202;19.720;2023-09-19T12:17:20;6.75;;;1.70;;
59388;SDS011;51830;45.202;19.720;2023-09-19T12:19:56;6.82;;;2.05;;
59388;SDS011;51830;45.202;19.720;2023-09-19T12:22:22;5.75;;;1.70;;
59388;SDS011;51830;45.202;19.720;2023-09-19T12:24:50;8.80;;;2.08;;
59388;SDS011;51830;45.202;19.720;2023-09-19T12:27:19;10.48;;;2.20;;
59388;SDS011;51830;45.202;19.720;2023-09-19T12:29:47;10.45;;;2.45;;
59388;SDS011;51830;45.202;19.720;2023-09-19T12:32:14;8.02;;;1.90;;
59388;SDS011;51830;45.202;19.720;2023-09-19T12:37:15;7.40;;;2.13;;
59388;SDS011;51830;45.202;19.720;2023-09-19T12:39:46;12.57;;;2.13;;
59388;SDS011;51830;45.202;19.720;2023-09-19T12:42:14;7.57;;;2.05;;
59388;SDS011;51830;45.202;19.720;2023-09-19T12:44:42;10.80;;;2.40;;
59388;SDS011;51830;45.202;19.720;2023-09-19T12:47:09;10.00;;;2.35;;
59388;SDS011;51830;45.202;19.720;2023-09-19T12:49:36;11.10;;;2.03;;
59388;SDS011;51830;45.202;19.720;2023-09-19T12:52:02;10.07;;;2.40;;
59388;SDS011;51830;45.202;19.720;2023-09-19T12:54:41;13.43;;;2.47;;
59388;SDS011;51830;45.202;19.720;2023-09-19T12:57:22;6.75;;;2.03;;
59388;SDS011;51830;45.202;19.720;2023-09-19T12:59:51;11.98;;;2.20;;
59388;SDS011;51830;45.202;19.720;2023-09-19T13:02:17;9.38;;;2.13;;
59388;SDS011;51830;45.202;19.720;2023-09-19T13:04:54;8.30;;;1.85;;
59388;SDS011;51830;45.202;19.720;2023-09-19T13:07:43;7.78;;;2.13;;
59388;SDS011;51830;45.202;19.720;2023-09-19T13:10:11;7.25;;;1.67;;
59388;SDS011;51830;45.202;19.720;2023-09-19T13:12:41;4.80;;;1.63;;
59388;SDS011;51830;45.202;19.720;2023-09-19T13:15:10;6.72;;;1.88;;
59388;SDS011;51830;45.202;19.720;2023-09-19T13:17:46;8.52;;;1.88;;
59388;SDS011;51830;45.202;19.720;2023-09-19T13:20:25;8.95;;;1.95;;
59388;SDS011;51830;45.202;19.720;2023-09-19T13:22:54;8.05;;;1.90;;
59388;SDS011;51830;45.202;19.720;2023-09-19T13:25:25;10.07;;;2.88;;
59388;SDS011;51830;45.202;19.720;2023-09-19T13:27:54;9.93;;;2.00;;
59388;SDS011;51830;45.202;19.720;2023-09-19T13:30:27;8.50;;;2.00;;
59388;SDS011;51830;45.202;19.720;2023-09-19T13:33:05;9.68;;;2.08;;
59388;SDS011;51830;45.202;19.720;2023-09-19T13:35:32;8.45;;;1.90;;
59388;SDS011;51830;45.202;19.720;2023-09-19T13:37:58;9.52;;;2.22;;
59388;SDS011;51830;45.202;19.720;2023-09-19T13:40:26;6.28;;;1.70;;
59388;SDS011;51830;45.202;19.720;2023-09-19T13:42:55;8.05;;;1.75;;
59388;SDS011;51830;45.202;19.720;2023-09-19T13:45:22;8.90;;;1.90;;
59388;SDS011;51830;45.202;19.720;2023-09-19T13:47:49;9.88;;;2.30;;
59388;SDS011;51830;45.202;19.720;2023-09-19T13:50:16;7.75;;;2.30;;
59388;SDS011;51830;45.202;19.720;2023-09-19T13:52:48;6.00;;;1.85;;
59388;SDS011;51830;45.202;19.720;2023-09-19T13:55:19;9.77;;;1.95;;
59388;SDS011;51830;45.202;19.720;2023-09-19T13:57:46;10.90;;;2.50;;
59388;SDS011;51830;45.202;19.720;2023-09-19T14:00:15;8.80;;;2.22;;
59388;SDS011;51830;45.202;19.720;2023-09-19T14:02:41;4.95;;;1.55;;
59388;SDS011;51830;45.202;19.720;2023-09-19T14:05:09;7.50;;;1.58;;
59388;SDS011;51830;45.202;19.720;2023-09-19T14:07:40;7.07;;;2.22;;
59388;SDS011;51830;45.202;19.720;2023-09-19T14:10:06;5.85;;;1.73;;
59388;SDS011;51830;45.202;19.720;2023-09-19T14:12:33;8.88;;;1.80;;
59388;SDS011;51830;45.202;19.720;2023-09-19T14:15:00;9.75;;;1.92;;
59388;SDS011;51830;45.202;19.720;2023-09-19T14:17:26;4.25;;;1.58;;
59388;SDS011;51830;45.202;19.720;2023-09-19T14:19:53;6.38;;;1.77;;
59388;SDS011;51830;45.202;19.720;2023-09-19T14:22:19;5.65;;;1.63;;
59388;SDS011;51830;45.202;19.720;2023-09-19T14:24:45;6.88;;;1.80;;
59388;SDS011;51830;45.202;19.720;2023-09-19T14:27:11;13.50;;;2.92;;
59388;SDS011;51830;45.202;19.720;2023-09-19T14:29:37;13.80;;;2.72;;
59388;SDS011;51830;45.202;19.720;2023-09-19T14:32:04;8.55;;;2.33;;
59388;SDS011;51830;45.202;19.720;2023-09-19T14:34:31;4.68;;;1.73;;
59388;SDS011;51830;45.202;19.720;2023-09-19T14:36:58;7.43;;;1.80;;
59388;SDS011;51830;45.202;19.720;2023-09-19T14:39:24;7.68;;;1.80;;
59388;SDS011;51830;45.202;19.720;2023-09-19T14:41:50;8.88;;;2.10;;
59388;SDS011;51830;45.202;19.720;2023-09-19T14:44:16;7.40;;;1.60;;
59388;SDS011;51830;45.202;19.720;2023-09-19T14:46:42;5.90;;;1.50;;
59388;SDS011;51830;45.202;19.720;2023-09-19T14:49:10;7.20;;;1.90;;
59388;SDS011;51830;45.202;19.720;2023-09-19T14:51:37;11.60;;;2.00;;
59388;SDS011;51830;45.202;19.720;2023-09-19T14:54:09;6.00;;;1.58;;
59388;SDS011;51830;45.202;19.720;2023-09-19T14:56:35;8.27;;;1.85;;
59388;SDS011;51830;45.202;19.720;2023-09-19T14:59:01;5.55;;;1.45;;
59388;SDS011;51830;45.202;19.720;2023-09-19T15:01:27;5.85;;;1.42;;
59388;SDS011;51830;45.202;19.720;2023-09-19T15:03:54;5.55;;;1.55;;
59388;SDS011;51830;45.202;19.720;2023-09-19T15:06:20;6.00;;;1.70;;
59388;SDS011;51830;45.202;19.720;2023-09-19T15:08:47;4.40;;;1.65;;